sensor_id;sensor_type;location;lat;lon;timestamp;P1;durP1;ratioP1;P2;durP2;ratioP2
70997;SDS011;58663;52.040;4.634;2023-08-01T00:01:47;13.43;;;4.63;;
70997;SDS011;58663;52.040;4.634;2023-08-01T00:04:12;17.65;;;4.75;;
70997;SDS011;58663;52.040;4.634;2023-08-01T00:06:37;12.60;;;4.47;;
70997;SDS011;58663;52.040;4.634;2023-08-01T00:09:03;7.72;;;4.10;;
70997;SDS011;58663;52.040;4.634;2023-08-01T00:11:28;13.65;;;4.45;;
70997;SDS011;58663;52.040;4.634;2023-08-01T00:13:53;10.93;;;5.05;;
70997;SDS011;58663;52.040;4.634;2023-08-01T00:16:19;13.23;;;4.75;;
70997;SDS011;58663;52.040;4.634;2023-08-01T00:18:44;18.02;;;5.63;;
70997;SDS011;58663;52.040;4.634;2023-08-01T00:21:09;11.27;;;5.22;;
70997;SDS011;58663;52.040;4.634;2023-08-01T00:23:36;20.15;;;5.72;;
70997;SDS011;58663;52.040;4.634;2023-08-01T00:26:02;16.15;;;5.55;;
70997;SDS011;58663;52.040;4.634;2023-08-01T00:28:28;14.10;;;4.93;;
70997;SDS011;58663;52.040;4.634;2023-08-01T00:31:05;13.30;;;5.50;;
70997;SDS011;58663;52.040;4.634;2023-08-01T00:33:31;12.23;;;5.07;;
70997;SDS011;58663;52.040;4.634;2023-08-01T00:35:57;13.85;;;4.90;;
70997;SDS011;58663;52.040;4.634;2023-08-01T00:38:22;12.35;;;5.32;;
70997;SDS011;58663;52.040;4.634;2023-08-01T00:40:47;16.42;;;5.55;;
70997;SDS011;58663;52.040;4.634;2023-08-01T00:43:13;13.55;;;5.45;;
70997;SDS011;58663;52.040;4.634;2023-08-01T00:45:38;13.48;;;5.20;;
70997;SDS011;58663;52.040;4.634;2023-08-01T00:48:04;16.02;;;4.95;;
70997;SDS011;58663;52.040;4.634;2023-08-01T00:50:29;13.05;;;5.65;;
70997;SDS011;58663;52.040;4.634;2023-08-01T00:52:54;14.82;;;5.13;;
70997;SDS011;58663;52.040;4.634;2023-08-01T00:55:21;16.52;;;5.35;;
70997;SDS011;58663;52.040;4.634;2023-08-01T00:57:47;16.75;;;5.60;;
70997;SDS011;58663;52.040;4.634;2023-08-01T01:00:12;16.85;;;5.28;;
70997;SDS011;58663;52.040;4.634;2023-08-01T01:02:38;20.27;;;5.65;;
70997;SDS011;58663;52.040;4.634;2023-08-01T01:05:04;17.90;;;5.70;;
70997;SDS011;58663;52.040;4.634;2023-08-01T01:07:30;18.50;;;6.25;;
70997;SDS011;58663;52.040;4.634;2023-08-01T01:09:56;12.50;;;5.28;;
70997;SDS011;58663;52.040;4.634;2023-08-01T01:12:22;16.35;;;5.68;;
70997;SDS011;58663;52.040;4.634;2023-08-01T01:14:47;19.08;;;5.93;;
70997;SDS011;58663;52.040;4.634;2023-08-01T01:17:13;16.23;;;6.18;;
70997;SDS011;58663;52.040;4.634;2023-08-01T01:19:38;19.77;;;6.65;;
70997;SDS011;58663;52.040;4.634;2023-08-01T01:22:04;21.15;;;6.57;;
70997;SDS011;58663;52.040;4.634;2023-08-01T01:24:30;24.02;;;5.90;;
70997;SDS011;58663;52.040;4.634;2023-08-01T01:26:55;24.23;;;7.50;;
70997;SDS011;58663;52.040;4.634;2023-08-01T01:29:22;21.00;;;7.38;;
70997;SDS011;58663;52.040;4.634;2023-08-01T01:31:49;21.40;;;7.00;;
70997;SDS011;58663;52.040;4.634;2023-08-01T01:34:15;18.02;;;6.38;;
70997;SDS011;58663;52.040;4.634;2023-08-01T01:36:40;17.02;;;6.97;;
70997;SDS011;58663;52.040;4.634;2023-08-01T01:39:05;20.15;;;6.70;;
70997;SDS011;58663;52.040;4.634;2023-08-01T01:41:31;14.07;;;6.22;;
70997;SDS011;58663;52.040;4.634;2023-08-01T01:43:56;18.08;;;6.30;;
70997;SDS011;58663;52.040;4.634;2023-08-01T01:46:22;21.30;;;6.18;;
70997;SDS011;58663;52.040;4.634;2023-08-01T01:48:47;19.42;;;6.32;;
70997;SDS011;58663;52.040;4.634;2023-08-01T01:51:12;18.55;;;6.40;;
70997;SDS011;58663;52.040;4.634;2023-08-01T01:53:38;15.35;;;5.97;;
70997;SDS011;58663;52.040;4.634;2023-08-01T01:56:03;22.13;;;6.40;;
70997;SDS011;58663;52.040;4.634;2023-08-01T01:58:29;18.90;;;6.32;;
70997;SDS011;58663;52.040;4.634;2023-08-01T02:00:54;16.58;;;5.95;;
70997;SDS011;58663;52.040;4.634;2023-08-01T02:03:19;17.63;;;5.85;;
70997;SDS011;58663;52.040;4.634;2023-08-01T02:05:45;18.65;;;6.60;;
70997;SDS011;58663;52.040;4.634;2023-08-01T02:08:10;16.85;;;6.00;;
70997;SDS011;58663;52.040;4.634;2023-08-01T02:10:35;20.05;;;6.82;;
70997;SDS011;58663;52.040;4.634;2023-08-01T02:13:01;16.80;;;6.07;;
70997;SDS011;58663;52.040;4.634;2023-08-01T02:15:26;20.52;;;6.82;;
70997;SDS011;58663;52.040;4.634;2023-08-01T02:17:51;22.80;;;5.88;;
70997;SDS011;58663;52.040;4.634;2023-08-01T02:20:17;18.95;;;6.38;;
70997;SDS011;58663;52.040;4.634;2023-08-01T02:22:42;35.10;;;7.63;;
70997;SDS011;58663;52.040;4.634;2023-08-01T02:25:07;21.80;;;6.13;;
70997;SDS011;58663;52.040;4.634;2023-08-01T02:27:33;20.88;;;7.28;;
70997;SDS011;58663;52.040;4.634;2023-08-01T02:29:58;20.80;;;6.18;;
70997;SDS011;58663;52.040;4.634;2023-08-01T02:32:23;24.75;;;6.60;;
70997;SDS011;58663;52.040;4.634;2023-08-01T02:34:49;31.27;;;6.85;;
70997;SDS011;58663;52.040;4.634;2023-08-01T02:37:14;21.83;;;6.93;;
70997;SDS011;58663;52.040;4.634;2023-08-01T02:39:39;23.45;;;7.05;;
70997;SDS011;58663;52.040;4.634;2023-08-01T02:42:05;17.00;;;6.18;;
70997;SDS011;58663;52.040;4.634;2023-08-01T02:44:30;33.58;;;7.93;;
70997;SDS011;58663;52.040;4.634;2023-08-01T02:46:56;27.40;;;7.68;;
70997;SDS011;58663;52.040;4.634;2023-08-01T02:49:21;21.30;;;6.68;;
70997;SDS011;58663;52.040;4.634;2023-08-01T02:51:46;20.52;;;7.32;;
70997;SDS011;58663;52.040;4.634;2023-08-01T02:54:12;31.98;;;7.05;;
70997;SDS011;58663;52.040;4.634;2023-08-01T02:56:37;20.63;;;6.38;;
70997;SDS011;58663;52.040;4.634;2023-08-01T02:59:06;18.75;;;7.80;;
70997;SDS011;58663;52.040;4.634;2023-08-01T03:01:33;30.35;;;6.88;;
70997;SDS011;58663;52.040;4.634;2023-08-01T03:03:59;25.00;;;7.68;;
70997;SDS011;58663;52.040;4.634;2023-08-01T03:06:24;21.65;;;6.22;;
70997;SDS011;58663;52.040;4.634;2023-08-01T03:08:50;24.67;;;6.30;;
70997;SDS011;58663;52.040;4.634;2023-08-01T03:11:16;24.38;;;5.90;;
70997;SDS011;58663;52.040;4.634;2023-08-01T03:13:41;22.65;;;6.93;;
70997;SDS011;58663;52.040;4.634;2023-08-01T03:16:06;18.00;;;6.45;;
70997;SDS011;58663;52.040;4.634;2023-08-01T03:18:32;28.17;;;7.03;;
70997;SDS011;58663;52.040;4.634;2023-08-01T03:20:57;16.13;;;5.93;;
70997;SDS011;58663;52.040;4.634;2023-08-01T03:23:22;18.95;;;6.53;;
70997;SDS011;58663;52.040;4.634;2023-08-01T03:25:48;14.27;;;6.00;;
70997;SDS011;58663;52.040;4.634;2023-08-01T03:28:13;23.02;;;6.85;;
70997;SDS011;58663;52.040;4.634;2023-08-01T03:30:39;25.95;;;6.35;;
70997;SDS011;58663;52.040;4.634;2023-08-01T03:33:04;15.23;;;5.85;;
70997;SDS011;58663;52.040;4.634;2023-08-01T03:35:29;26.75;;;6.07;;
70997;SDS011;58663;52.040;4.634;2023-08-01T03:37:55;22.33;;;6.47;;
70997;SDS011;58663;52.040;4.634;2023-08-01T03:40:20;20.08;;;6.47;;
70997;SDS011;58663;52.040;4.634;2023-08-01T03:42:46;22.27;;;6.47;;
70997;SDS011;58663;52.040;4.634;2023-08-01T03:45:11;24.80;;;6.05;;
70997;SDS011;58663;52.040;4.634;2023-08-01T03:47:37;15.60;;;5.80;;
70997;SDS011;58663;52.040;4.634;2023-08-01T03:50:02;26.33;;;7.20;;
70997;SDS011;58663;52.040;4.634;2023-08-01T03:52:28;16.52;;;6.63;;
70997;SDS011;58663;52.040;4.634;2023-08-01T03:54:54;18.65;;;6.38;;
70997;SDS011;58663;52.040;4.634;2023-08-01T03:57:19;20.45;;;7.03;;
70997;SDS011;58663;52.040;4.634;2023-08-01T03:59:45;16.27;;;6.05;;
70997;SDS011;58663;52.040;4.634;2023-08-01T04:02:11;23.77;;;5.57;;
70997;SDS011;58663;52.040;4.634;2023-08-01T04:04:36;19.08;;;5.55;;
70997;SDS011;58663;52.040;4.634;2023-08-01T04:07:02;17.35;;;5.45;;
70997;SDS011;58663;52.040;4.634;2023-08-01T04:09:27;24.55;;;6.03;;
70997;SDS011;58663;52.040;4.634;2023-08-01T04:11:52;21.38;;;6.47;;
70997;SDS011;58663;52.040;4.634;2023-08-01T04:14:18;19.45;;;6.00;;
70997;SDS011;58663;52.040;4.634;2023-08-01T04:16:43;18.02;;;5.78;;
70997;SDS011;58663;52.040;4.634;2023-08-01T04:19:09;22.38;;;5.63;;
70997;SDS011;58663;52.040;4.634;2023-08-01T04:21:34;18.27;;;5.07;;
70997;SDS011;58663;52.040;4.634;2023-08-01T04:24:00;16.35;;;5.07;;
70997;SDS011;58663;52.040;4.634;2023-08-01T04:26:25;24.85;;;5.22;;
70997;SDS011;58663;52.040;4.634;2023-08-01T04:28:51;15.48;;;5.10;;
70997;SDS011;58663;52.040;4.634;2023-08-01T04:31:16;20.27;;;6.28;;
70997;SDS011;58663;52.040;4.634;2023-08-01T04:33:42;14.85;;;5.28;;
70997;SDS011;58663;52.040;4.634;2023-08-01T04:36:08;17.27;;;5.00;;
70997;SDS011;58663;52.040;4.634;2023-08-01T04:38:33;16.10;;;5.68;;
70997;SDS011;58663;52.040;4.634;2023-08-01T04:40:59;19.58;;;4.90;;
70997;SDS011;58663;52.040;4.634;2023-08-01T04:43:25;15.85;;;4.70;;
70997;SDS011;58663;52.040;4.634;2023-08-01T04:45:50;19.15;;;3.92;;
70997;SDS011;58663;52.040;4.634;2023-08-01T04:48:15;12.98;;;3.92;;
70997;SDS011;58663;52.040;4.634;2023-08-01T04:50:41;14.95;;;4.10;;
70997;SDS011;58663;52.040;4.634;2023-08-01T04:53:06;15.95;;;3.70;;
70997;SDS011;58663;52.040;4.634;2023-08-01T04:55:32;15.13;;;3.72;;
70997;SDS011;58663;52.040;4.634;2023-08-01T04:57:57;15.45;;;3.78;;
70997;SDS011;58663;52.040;4.634;2023-08-01T05:00:23;16.63;;;4.07;;
70997;SDS011;58663;52.040;4.634;2023-08-01T05:02:53;11.18;;;3.90;;
70997;SDS011;58663;52.040;4.634;2023-08-01T05:05:19;16.60;;;4.22;;
70997;SDS011;58663;52.040;4.634;2023-08-01T05:07:44;14.60;;;4.60;;
70997;SDS011;58663;52.040;4.634;2023-08-01T05:10:10;14.52;;;4.25;;
70997;SDS011;58663;52.040;4.634;2023-08-01T05:12:35;12.02;;;4.00;;
70997;SDS011;58663;52.040;4.634;2023-08-01T05:15:00;11.65;;;3.53;;
70997;SDS011;58663;52.040;4.634;2023-08-01T05:17:26;11.45;;;3.95;;
70997;SDS011;58663;52.040;4.634;2023-08-01T05:19:51;10.57;;;3.42;;
70997;SDS011;58663;52.040;4.634;2023-08-01T05:22:18;11.95;;;4.45;;
70997;SDS011;58663;52.040;4.634;2023-08-01T05:24:43;11.65;;;4.30;;
70997;SDS011;58663;52.040;4.634;2023-08-01T05:27:09;19.23;;;3.97;;
70997;SDS011;58663;52.040;4.634;2023-08-01T05:29:34;11.90;;;4.32;;
70997;SDS011;58663;52.040;4.634;2023-08-01T05:31:59;14.18;;;4.95;;
70997;SDS011;58663;52.040;4.634;2023-08-01T05:34:25;9.93;;;3.50;;
70997;SDS011;58663;52.040;4.634;2023-08-01T05:36:50;16.25;;;3.85;;
70997;SDS011;58663;52.040;4.634;2023-08-01T05:39:16;11.48;;;3.55;;
70997;SDS011;58663;52.040;4.634;2023-08-01T05:41:42;12.93;;;4.05;;
70997;SDS011;58663;52.040;4.634;2023-08-01T05:44:07;9.23;;;4.03;;
70997;SDS011;58663;52.040;4.634;2023-08-01T05:46:32;12.05;;;4.35;;
70997;SDS011;58663;52.040;4.634;2023-08-01T05:49:10;13.07;;;4.75;;
70997;SDS011;58663;52.040;4.634;2023-08-01T05:51:35;10.52;;;3.95;;
70997;SDS011;58663;52.040;4.634;2023-08-01T05:54:01;12.50;;;3.85;;
70997;SDS011;58663;52.040;4.634;2023-08-01T05:56:26;7.95;;;3.20;;
70997;SDS011;58663;52.040;4.634;2023-08-01T05:58:52;16.13;;;4.10;;
70997;SDS011;58663;52.040;4.634;2023-08-01T06:01:17;11.85;;;4.80;;
70997;SDS011;58663;52.040;4.634;2023-08-01T06:03:42;15.93;;;3.35;;
70997;SDS011;58663;52.040;4.634;2023-08-01T06:06:08;16.85;;;3.53;;
70997;SDS011;58663;52.040;4.634;2023-08-01T06:08:33;12.27;;;3.45;;
70997;SDS011;58663;52.040;4.634;2023-08-01T06:10:59;12.75;;;3.22;;
70997;SDS011;58663;52.040;4.634;2023-08-01T06:13:24;13.02;;;2.92;;
70997;SDS011;58663;52.040;4.634;2023-08-01T06:15:49;14.05;;;3.00;;
70997;SDS011;58663;52.040;4.634;2023-08-01T06:18:15;8.48;;;3.15;;
70997;SDS011;58663;52.040;4.634;2023-08-01T06:20:40;11.38;;;3.80;;
70997;SDS011;58663;52.040;4.634;2023-08-01T06:23:05;11.15;;;3.20;;
70997;SDS011;58663;52.040;4.634;2023-08-01T06:25:31;8.88;;;2.80;;
70997;SDS011;58663;52.040;4.634;2023-08-01T06:27:56;11.98;;;3.50;;
70997;SDS011;58663;52.040;4.634;2023-08-01T06:30:40;14.15;;;3.15;;
70997;SDS011;58663;52.040;4.634;2023-08-01T06:33:06;7.47;;;3.13;;
70997;SDS011;58663;52.040;4.634;2023-08-01T06:35:31;10.00;;;3.13;;
70997;SDS011;58663;52.040;4.634;2023-08-01T06:37:56;12.70;;;3.33;;
70997;SDS011;58663;52.040;4.634;2023-08-01T06:40:22;14.57;;;3.80;;
70997;SDS011;58663;52.040;4.634;2023-08-01T06:42:47;14.25;;;4.82;;
70997;SDS011;58663;52.040;4.634;2023-08-01T06:45:12;8.10;;;3.63;;
70997;SDS011;58663;52.040;4.634;2023-08-01T06:47:50;13.30;;;3.70;;
70997;SDS011;58663;52.040;4.634;2023-08-01T06:50:15;13.05;;;4.10;;
70997;SDS011;58663;52.040;4.634;2023-08-01T06:52:41;16.52;;;4.25;;
70997;SDS011;58663;52.040;4.634;2023-08-01T06:55:06;10.80;;;3.42;;
70997;SDS011;58663;52.040;4.634;2023-08-01T06:57:31;12.63;;;4.10;;
70997;SDS011;58663;52.040;4.634;2023-08-01T06:59:57;9.95;;;4.05;;
70997;SDS011;58663;52.040;4.634;2023-08-01T07:02:22;11.57;;;3.88;;
70997;SDS011;58663;52.040;4.634;2023-08-01T07:04:47;7.43;;;3.33;;
70997;SDS011;58663;52.040;4.634;2023-08-01T07:07:13;10.98;;;3.45;;
70997;SDS011;58663;52.040;4.634;2023-08-01T07:09:38;7.90;;;3.22;;
70997;SDS011;58663;52.040;4.634;2023-08-01T07:12:04;10.23;;;3.22;;
70997;SDS011;58663;52.040;4.634;2023-08-01T07:14:30;7.75;;;2.85;;
70997;SDS011;58663;52.040;4.634;2023-08-01T07:16:55;9.88;;;3.08;;
70997;SDS011;58663;52.040;4.634;2023-08-01T07:19:20;10.40;;;3.17;;
70997;SDS011;58663;52.040;4.634;2023-08-01T07:21:46;7.70;;;2.47;;
70997;SDS011;58663;52.040;4.634;2023-08-01T07:24:13;9.25;;;2.90;;
70997;SDS011;58663;52.040;4.634;2023-08-01T07:26:39;8.88;;;2.80;;
70997;SDS011;58663;52.040;4.634;2023-08-01T07:29:05;8.98;;;3.10;;
70997;SDS011;58663;52.040;4.634;2023-08-01T07:31:33;9.00;;;2.75;;
70997;SDS011;58663;52.040;4.634;2023-08-01T07:33:58;9.73;;;2.30;;
70997;SDS011;58663;52.040;4.634;2023-08-01T07:36:24;7.22;;;2.50;;
70997;SDS011;58663;52.040;4.634;2023-08-01T07:38:49;11.50;;;2.70;;
70997;SDS011;58663;52.040;4.634;2023-08-01T07:41:14;6.38;;;2.40;;
70997;SDS011;58663;52.040;4.634;2023-08-01T07:43:40;9.40;;;2.70;;
70997;SDS011;58663;52.040;4.634;2023-08-01T07:46:05;8.88;;;2.70;;
70997;SDS011;58663;52.040;4.634;2023-08-01T07:48:33;10.32;;;2.50;;
70997;SDS011;58663;52.040;4.634;2023-08-01T07:50:59;11.90;;;2.63;;
70997;SDS011;58663;52.040;4.634;2023-08-01T07:53:25;12.60;;;2.50;;
70997;SDS011;58663;52.040;4.634;2023-08-01T07:55:51;8.82;;;2.78;;
70997;SDS011;58663;52.040;4.634;2023-08-01T07:58:18;11.25;;;2.65;;
70997;SDS011;58663;52.040;4.634;2023-08-01T08:00:43;12.63;;;2.45;;
70997;SDS011;58663;52.040;4.634;2023-08-01T08:03:08;9.90;;;2.92;;
70997;SDS011;58663;52.040;4.634;2023-08-01T08:05:34;9.45;;;2.60;;
70997;SDS011;58663;52.040;4.634;2023-08-01T08:08:03;7.30;;;2.53;;
70997;SDS011;58663;52.040;4.634;2023-08-01T08:10:29;7.50;;;2.33;;
70997;SDS011;58663;52.040;4.634;2023-08-01T08:12:54;12.65;;;3.72;;
70997;SDS011;58663;52.040;4.634;2023-08-01T08:15:19;11.10;;;3.15;;
70997;SDS011;58663;52.040;4.634;2023-08-01T08:17:45;8.10;;;2.10;;
70997;SDS011;58663;52.040;4.634;2023-08-01T08:20:10;13.45;;;2.72;;
70997;SDS011;58663;52.040;4.634;2023-08-01T08:22:36;9.05;;;2.70;;
70997;SDS011;58663;52.040;4.634;2023-08-01T08:25:01;8.00;;;2.95;;
70997;SDS011;58663;52.040;4.634;2023-08-01T08:27:26;8.82;;;2.38;;
70997;SDS011;58663;52.040;4.634;2023-08-01T08:29:52;5.50;;;2.17;;
70997;SDS011;58663;52.040;4.634;2023-08-01T08:32:17;11.77;;;2.83;;
70997;SDS011;58663;52.040;4.634;2023-08-01T08:34:42;9.18;;;2.33;;
70997;SDS011;58663;52.040;4.634;2023-08-01T08:37:08;10.50;;;2.10;;
70997;SDS011;58663;52.040;4.634;2023-08-01T08:39:33;15.18;;;2.97;;
70997;SDS011;58663;52.040;4.634;2023-08-01T08:41:58;6.88;;;2.13;;
70997;SDS011;58663;52.040;4.634;2023-08-01T08:44:24;7.88;;;2.72;;
70997;SDS011;58663;52.040;4.634;2023-08-01T08:46:50;12.48;;;2.72;;
70997;SDS011;58663;52.040;4.634;2023-08-01T08:49:17;8.43;;;2.30;;
70997;SDS011;58663;52.040;4.634;2023-08-01T08:51:45;12.57;;;2.88;;
70997;SDS011;58663;52.040;4.634;2023-08-01T08:54:10;8.68;;;2.95;;
70997;SDS011;58663;52.040;4.634;2023-08-01T08:56:36;8.10;;;2.40;;
70997;SDS011;58663;52.040;4.634;2023-08-01T08:59:03;5.43;;;2.65;;
70997;SDS011;58663;52.040;4.634;2023-08-01T09:01:29;13.05;;;2.55;;
70997;SDS011;58663;52.040;4.634;2023-08-01T09:03:56;8.13;;;2.10;;
70997;SDS011;58663;52.040;4.634;2023-08-01T09:06:28;9.38;;;2.75;;
70997;SDS011;58663;52.040;4.634;2023-08-01T09:08:56;7.53;;;2.33;;
70997;SDS011;58663;52.040;4.634;2023-08-01T09:11:26;10.70;;;2.45;;
70997;SDS011;58663;52.040;4.634;2023-08-01T09:13:52;9.45;;;3.05;;
70997;SDS011;58663;52.040;4.634;2023-08-01T09:16:17;8.75;;;2.45;;
70997;SDS011;58663;52.040;4.634;2023-08-01T09:19:01;8.85;;;2.95;;
70997;SDS011;58663;52.040;4.634;2023-08-01T09:21:27;5.97;;;2.20;;
70997;SDS011;58663;52.040;4.634;2023-08-01T09:23:55;9.18;;;2.25;;
70997;SDS011;58663;52.040;4.634;2023-08-01T09:26:21;8.40;;;2.40;;
70997;SDS011;58663;52.040;4.634;2023-08-01T09:28:56;10.90;;;2.60;;
70997;SDS011;58663;52.040;4.634;2023-08-01T09:31:34;7.72;;;2.50;;
70997;SDS011;58663;52.040;4.634;2023-08-01T09:34:02;5.18;;;2.05;;
70997;SDS011;58663;52.040;4.634;2023-08-01T09:36:34;7.10;;;2.17;;
70997;SDS011;58663;52.040;4.634;2023-08-01T09:39:00;4.50;;;2.03;;
70997;SDS011;58663;52.040;4.634;2023-08-01T09:41:31;7.55;;;2.10;;
70997;SDS011;58663;52.040;4.634;2023-08-01T09:43:56;6.30;;;2.60;;
70997;SDS011;58663;52.040;4.634;2023-08-01T09:46:23;5.93;;;2.25;;
70997;SDS011;58663;52.040;4.634;2023-08-01T09:48:49;7.95;;;2.50;;
70997;SDS011;58663;52.040;4.634;2023-08-01T09:51:15;10.52;;;2.30;;
70997;SDS011;58663;52.040;4.634;2023-08-01T09:54:00;3.60;;;1.90;;
70997;SDS011;58663;52.040;4.634;2023-08-01T09:56:26;5.80;;;2.35;;
70997;SDS011;58663;52.040;4.634;2023-08-01T09:58:52;5.30;;;1.73;;
70997;SDS011;58663;52.040;4.634;2023-08-01T10:01:20;8.15;;;2.83;;
70997;SDS011;58663;52.040;4.634;2023-08-01T10:03:47;10.18;;;4.78;;
70997;SDS011;58663;52.040;4.634;2023-08-01T10:06:23;8.65;;;2.65;;
70997;SDS011;58663;52.040;4.634;2023-08-01T10:08:50;7.88;;;2.25;;
70997;SDS011;58663;52.040;4.634;2023-08-01T10:11:20;7.05;;;2.05;;
70997;SDS011;58663;52.040;4.634;2023-08-01T10:13:46;7.63;;;2.05;;
70997;SDS011;58663;52.040;4.634;2023-08-01T10:16:12;6.07;;;2.50;;
70997;SDS011;58663;52.040;4.634;2023-08-01T10:18:39;14.13;;;3.22;;
70997;SDS011;58663;52.040;4.634;2023-08-01T10:21:11;9.25;;;2.33;;
70997;SDS011;58663;52.040;4.634;2023-08-01T10:23:38;7.75;;;2.25;;
70997;SDS011;58663;52.040;4.634;2023-08-01T10:26:07;7.18;;;2.47;;
70997;SDS011;58663;52.040;4.634;2023-08-01T10:28:34;8.77;;;1.90;;
70997;SDS011;58663;52.040;4.634;2023-08-01T10:33:33;6.47;;;2.00;;
70997;SDS011;58663;52.040;4.634;2023-08-01T10:35:59;7.35;;;1.95;;
70997;SDS011;58663;52.040;4.634;2023-08-01T10:38:24;6.95;;;1.73;;
70997;SDS011;58663;52.040;4.634;2023-08-01T10:40:50;11.05;;;1.98;;
70997;SDS011;58663;52.040;4.634;2023-08-01T10:43:23;6.63;;;2.35;;
70997;SDS011;58663;52.040;4.634;2023-08-01T10:45:59;12.32;;;2.40;;
70997;SDS011;58663;52.040;4.634;2023-08-01T10:48:26;12.50;;;2.50;;
70997;SDS011;58663;52.040;4.634;2023-08-01T10:50:55;6.43;;;2.38;;
70997;SDS011;58663;52.040;4.634;2023-08-01T10:53:24;6.55;;;1.98;;
70997;SDS011;58663;52.040;4.634;2023-08-01T10:55:51;9.32;;;2.10;;
70997;SDS011;58663;52.040;4.634;2023-08-01T10:58:17;9.55;;;2.53;;
70997;SDS011;58663;52.040;4.634;2023-08-01T11:00:42;9.23;;;2.00;;
70997;SDS011;58663;52.040;4.634;2023-08-01T11:03:08;6.30;;;2.00;;
70997;SDS011;58663;52.040;4.634;2023-08-01T11:05:33;7.35;;;2.05;;
70997;SDS011;58663;52.040;4.634;2023-08-01T11:07:59;6.85;;;1.95;;
70997;SDS011;58663;52.040;4.634;2023-08-01T11:10:27;6.68;;;2.75;;
70997;SDS011;58663;52.040;4.634;2023-08-01T11:12:53;8.40;;;1.67;;
70997;SDS011;58663;52.040;4.634;2023-08-01T11:15:19;7.45;;;1.65;;
70997;SDS011;58663;52.040;4.634;2023-08-01T11:17:48;12.93;;;2.45;;
70997;SDS011;58663;52.040;4.634;2023-08-01T11:20:15;10.80;;;2.35;;
70997;SDS011;58663;52.040;4.634;2023-08-01T11:22:55;9.68;;;2.13;;
70997;SDS011;58663;52.040;4.634;2023-08-01T11:25:32;8.95;;;2.15;;
70997;SDS011;58663;52.040;4.634;2023-08-01T11:28:11;6.43;;;2.08;;
70997;SDS011;58663;52.040;4.634;2023-08-01T11:30:40;6.00;;;2.10;;
70997;SDS011;58663;52.040;4.634;2023-08-01T11:35:56;7.78;;;2.00;;
70997;SDS011;58663;52.040;4.634;2023-08-01T11:38:22;7.65;;;1.83;;
70997;SDS011;58663;52.040;4.634;2023-08-01T11:40:50;6.60;;;1.58;;
70997;SDS011;58663;52.040;4.634;2023-08-01T11:43:16;5.10;;;2.00;;
70997;SDS011;58663;52.040;4.634;2023-08-01T11:45:48;4.93;;;2.13;;
70997;SDS011;58663;52.040;4.634;2023-08-01T11:48:21;9.30;;;2.88;;
70997;SDS011;58663;52.040;4.634;2023-08-01T11:50:47;3.55;;;1.70;;
70997;SDS011;58663;52.040;4.634;2023-08-01T11:53:22;7.28;;;1.75;;
70997;SDS011;58663;52.040;4.634;2023-08-01T11:55:48;6.70;;;2.17;;
70997;SDS011;58663;52.040;4.634;2023-08-01T11:58:27;11.05;;;1.63;;
70997;SDS011;58663;52.040;4.634;2023-08-01T12:01:06;7.13;;;2.10;;
70997;SDS011;58663;52.040;4.634;2023-08-01T12:03:45;6.93;;;2.00;;
70997;SDS011;58663;52.040;4.634;2023-08-01T12:06:12;5.10;;;1.92;;
70997;SDS011;58663;52.040;4.634;2023-08-01T12:08:39;12.20;;;3.60;;
70997;SDS011;58663;52.040;4.634;2023-08-01T12:11:05;9.00;;;2.30;;
70997;SDS011;58663;52.040;4.634;2023-08-01T12:13:31;5.43;;;2.17;;
70997;SDS011;58663;52.040;4.634;2023-08-01T12:15:56;8.57;;;2.20;;
70997;SDS011;58663;52.040;4.634;2023-08-01T12:20:51;8.05;;;2.28;;
70997;SDS011;58663;52.040;4.634;2023-08-01T12:23:17;6.57;;;1.70;;
70997;SDS011;58663;52.040;4.634;2023-08-01T12:25:42;6.03;;;1.65;;
70997;SDS011;58663;52.040;4.634;2023-08-01T12:28:08;5.97;;;1.60;;
70997;SDS011;58663;52.040;4.634;2023-08-01T12:30:33;8.13;;;1.80;;
70997;SDS011;58663;52.040;4.634;2023-08-01T12:32:59;4.20;;;1.95;;
70997;SDS011;58663;52.040;4.634;2023-08-01T12:35:25;9.00;;;2.10;;
70997;SDS011;58663;52.040;4.634;2023-08-01T12:37:51;8.48;;;2.40;;
70997;SDS011;58663;52.040;4.634;2023-08-01T12:40:17;4.82;;;1.65;;
70997;SDS011;58663;52.040;4.634;2023-08-01T12:42:43;5.75;;;1.70;;
70997;SDS011;58663;52.040;4.634;2023-08-01T12:45:08;10.38;;;1.92;;
70997;SDS011;58663;52.040;4.634;2023-08-01T12:47:34;7.57;;;2.40;;
70997;SDS011;58663;52.040;4.634;2023-08-01T12:49:59;9.40;;;2.13;;
70997;SDS011;58663;52.040;4.634;2023-08-01T12:52:25;5.38;;;2.00;;
70997;SDS011;58663;52.040;4.634;2023-08-01T12:54:50;7.03;;;1.88;;
70997;SDS011;58663;52.040;4.634;2023-08-01T12:57:16;6.00;;;1.75;;
70997;SDS011;58663;52.040;4.634;2023-08-01T12:59:41;7.78;;;2.22;;
70997;SDS011;58663;52.040;4.634;2023-08-01T13:02:06;11.85;;;2.65;;
70997;SDS011;58663;52.040;4.634;2023-08-01T13:04:33;6.40;;;1.70;;
70997;SDS011;58663;52.040;4.634;2023-08-01T13:06:59;6.15;;;2.15;;
70997;SDS011;58663;52.040;4.634;2023-08-01T13:09:24;6.40;;;2.20;;
70997;SDS011;58663;52.040;4.634;2023-08-01T13:11:50;11.82;;;2.22;;
70997;SDS011;58663;52.040;4.634;2023-08-01T13:14:15;8.30;;;2.10;;
70997;SDS011;58663;52.040;4.634;2023-08-01T13:16:40;9.18;;;2.75;;
70997;SDS011;58663;52.040;4.634;2023-08-01T13:19:06;8.63;;;2.00;;
70997;SDS011;58663;52.040;4.634;2023-08-01T13:21:32;5.57;;;1.95;;
70997;SDS011;58663;52.040;4.634;2023-08-01T13:23:59;5.70;;;1.88;;
70997;SDS011;58663;52.040;4.634;2023-08-01T13:26:25;3.33;;;1.80;;
70997;SDS011;58663;52.040;4.634;2023-08-01T13:28:50;8.32;;;1.70;;
70997;SDS011;58663;52.040;4.634;2023-08-01T13:31:15;6.28;;;1.58;;
70997;SDS011;58663;52.040;4.634;2023-08-01T13:33:41;6.28;;;2.15;;
70997;SDS011;58663;52.040;4.634;2023-08-01T13:36:06;8.05;;;1.85;;
70997;SDS011;58663;52.040;4.634;2023-08-01T13:38:31;7.43;;;2.15;;
70997;SDS011;58663;52.040;4.634;2023-08-01T13:41:00;5.60;;;1.73;;
70997;SDS011;58663;52.040;4.634;2023-08-01T13:43:26;8.52;;;1.80;;
70997;SDS011;58663;52.040;4.634;2023-08-01T13:45:51;9.82;;;1.70;;
70997;SDS011;58663;52.040;4.634;2023-08-01T13:48:17;6.78;;;1.98;;
70997;SDS011;58663;52.040;4.634;2023-08-01T13:50:43;7.63;;;2.22;;
70997;SDS011;58663;52.040;4.634;2023-08-01T13:53:08;7.68;;;1.80;;
70997;SDS011;58663;52.040;4.634;2023-08-01T13:55:37;6.57;;;2.35;;
70997;SDS011;58663;52.040;4.634;2023-08-01T13:58:02;7.80;;;1.80;;
70997;SDS011;58663;52.040;4.634;2023-08-01T14:00:28;3.95;;;1.60;;
70997;SDS011;58663;52.040;4.634;2023-08-01T14:02:53;7.95;;;2.13;;
70997;SDS011;58663;52.040;4.634;2023-08-01T14:05:18;10.55;;;3.80;;
70997;SDS011;58663;52.040;4.634;2023-08-01T14:07:44;7.25;;;1.60;;
70997;SDS011;58663;52.040;4.634;2023-08-01T14:10:09;6.15;;;1.63;;
70997;SDS011;58663;52.040;4.634;2023-08-01T14:12:35;10.05;;;1.55;;
70997;SDS011;58663;52.040;4.634;2023-08-01T14:15:00;8.50;;;1.90;;
70997;SDS011;58663;52.040;4.634;2023-08-01T14:17:25;7.82;;;1.70;;
70997;SDS011;58663;52.040;4.634;2023-08-01T14:19:51;8.68;;;2.83;;
70997;SDS011;58663;52.040;4.634;2023-08-01T14:22:16;8.00;;;1.80;;
70997;SDS011;58663;52.040;4.634;2023-08-01T14:24:42;8.82;;;2.13;;
70997;SDS011;58663;52.040;4.634;2023-08-01T14:27:08;8.70;;;2.20;;
70997;SDS011;58663;52.040;4.634;2023-08-01T14:29:33;8.77;;;2.25;;
70997;SDS011;58663;52.040;4.634;2023-08-01T14:31:58;9.27;;;1.95;;
70997;SDS011;58663;52.040;4.634;2023-08-01T14:34:24;6.25;;;1.67;;
70997;SDS011;58663;52.040;4.634;2023-08-01T14:36:49;6.22;;;1.95;;
70997;SDS011;58663;52.040;4.634;2023-08-01T14:39:14;4.82;;;2.03;;
70997;SDS011;58663;52.040;4.634;2023-08-01T14:41:40;7.40;;;1.92;;
70997;SDS011;58663;52.040;4.634;2023-08-01T14:44:05;5.47;;;1.30;;